Time;durP1;ratioP1;P1;durP2;ratioP2;P2;SDS_P1;SDS_P2;PMS_P1;PMS_P2;Temp;Humidity;BMP_temperature;BMP_pressure;BME280_temperature;BME280_humidity;BME280_pressure;Samples;Min_cycle;Max_cycle;Signal;HPM_P1;HPM_P2
2022/04/12 00:00:15;;;;;;;;;5.00;3.00;;;;;17.29;48.17;100165.16;5175682;27;45190;-70
2022/04/12 00:02:41;;;;;;;;;3.75;3.00;;;;;17.22;48.59;100143.63;5174993;27;45133;-70
2022/04/12 00:05:07;;;;;;;;;6.00;4.00;;;;;17.20;48.52;100146.34;5156644;27;45022;-70
2022/04/12 00:07:32;;;;;;;;;4.00;4.00;;;;;17.00;48.53;100108.78;5175191;27;44899;-70
2022/04/12 00:09:58;;;;;;;;;3.00;3.00;;;;;16.84;48.33;100091.78;5172621;27;45026;-70
2022/04/12 00:12:23;;;;;;;;;4.00;3.67;;;;;16.71;48.49;100073.94;5170031;27;45990;-68
2022/04/12 00:14:49;;;;;;;;;8.00;4.00;;;;;17.15;49.05;100147.31;5174458;27;45268;-70
2022/04/12 00:19:58;;;;;;;;;6.25;5.00;;;;;17.01;49.16;100150.13;5160978;27;45222;-68
2022/04/12 00:22:24;;;;;;;;;3.67;3.67;;;;;16.85;48.97;100134.09;5157287;27;46367;-70
2022/04/12 00:24:49;;;;;;;;;3.00;3.00;;;;;16.72;49.71;100110.81;5157531;27;45295;-70
2022/04/12 00:27:14;;;;;;;;;1.00;0.67;;;;;16.71;49.58;100117.09;5157452;27;45622;-71
2022/04/12 00:29:40;;;;;;;;;8.67;5.00;;;;;16.90;49.52;100152.97;5157836;27;45398;-70
2022/04/12 00:32:06;;;;;;;;;6.00;4.50;;;;;16.54;49.42;100104.66;5156072;27;46019;-70
2022/04/12 00:34:32;;;;;;;;;4.67;4.67;;;;;16.89;49.74;100153.84;5157326;27;45453;-70
2022/04/12 00:36:57;;;;;;;;;5.25;3.00;;;;;16.82;50.42;100162.88;5157083;27;45354;-70
2022/04/12 00:39:22;;;;;;;;;4.67;4.33;;;;;16.52;50.46;100119.09;5161041;27;45316;-71
2022/04/12 00:41:48;;;;;;;;;3.75;3.75;;;;;16.72;50.48;100160.25;5157508;27;46004;-71
2022/04/12 00:44:13;;;;;;;;;5.00;5.00;;;;;16.66;50.49;100154.00;5157273;27;45456;-71
2022/04/12 00:46:38;;;;;;;;;3.25;3.25;;;;;16.55;50.22;100132.53;5156157;27;45870;-69
2022/04/12 00:49:03;;;;;;;;;2.67;2.67;;;;;16.59;51.14;100137.00;5157908;27;45949;-69
2022/04/12 00:51:29;;;;;;;;;4.00;4.00;;;;;16.57;50.29;100125.31;5159706;27;45905;-69
2022/04/12 00:53:56;;;;;;;;;5.00;5.00;;;;;16.45;50.93;100122.72;5156864;27;45604;-71
2022/04/12 00:56:22;;;;;;;;;6.50;3.75;;;;;16.60;50.69;100128.00;5157186;27;46119;-71
2022/04/12 00:58:49;;;;;;;;;7.75;4.50;;;;;16.62;50.38;100128.00;5157218;27;45467;-70
2022/04/12 01:01:15;;;;;;;;;7.75;3.00;;;;;16.57;50.71;100139.69;5156747;27;46038;-71
2022/04/12 01:03:40;;;;;;;;;3.50;3.25;;;;;16.52;50.86;100129.88;5162708;27;45887;-70
2022/04/12 01:06:06;;;;;;;;;3.00;3.00;;;;;16.57;50.82;100133.41;5157380;27;45523;-71
2022/04/12 01:08:36;;;;;;;;;3.25;3.25;;;;;16.49;50.62;100138.88;5157751;27;45600;-70
2022/04/12 01:11:06;;;;;;;;;3.75;3.75;;;;;16.47;51.27;100138.00;5157654;27;46067;-70
2022/04/12 01:13:35;;;;;;;;;5.00;5.00;;;;;16.37;51.37;100130.88;5156367;27;45761;-70
2022/04/12 01:16:01;;;;;;;;;3.00;3.00;;;;;16.34;51.20;100120.13;5157001;27;45573;-70
2022/04/12 01:18:26;;;;;;;;;4.00;4.00;;;;;16.36;51.04;100111.09;5156900;27;45412;-71
2022/04/12 01:20:52;;;;;;;;;4.75;3.50;;;;;16.37;51.12;100118.28;5162123;27;46371;-70
2022/04/12 01:23:27;;;;;;;;;3.00;3.00;;;;;16.25;52.01;100130.94;5173128;27;45215;-70
2022/04/12 01:25:53;;;;;;;;;6.00;4.25;;;;;16.21;51.84;100130.09;5147883;27;45311;-70
2022/04/12 01:28:18;;;;;;;;;2.75;2.75;;;;;16.21;51.55;100127.38;5166577;27;45395;-70
2022/04/12 01:30:43;;;;;;;;;2.75;2.50;;;;;16.25;51.24;100133.66;5171533;27;50517;-69
2022/04/12 01:33:09;;;;;;;;;7.00;5.00;;;;;16.21;51.67;100124.69;5168771;27;45456;-69
2022/04/12 01:35:34;;;;;;;;;5.25;4.25;;;;;16.16;51.85;100126.53;5178688;27;44907;-67
2022/04/12 01:38:01;;;;;;;;;6.25;6.25;;;;;16.17;51.46;100120.25;5172084;27;45369;-69
2022/04/12 01:40:27;;;;;;;;;3.25;3.25;;;;;16.19;51.35;100122.00;5164192;27;45522;-71
2022/04/12 01:42:53;;;;;;;;;4.75;4.00;;;;;16.15;51.51;100112.16;5166059;27;45660;-70
2022/04/12 01:45:20;;;;;;;;;3.00;2.50;;;;;16.20;51.51;100137.28;5175777;27;45426;-70
2022/04/12 01:47:46;;;;;;;;;4.00;4.00;;;;;16.10;51.75;100135.56;5178928;27;45206;-69
2022/04/12 01:50:11;;;;;;;;;6.50;5.00;;;;;15.94;52.10;100121.28;5178666;27;45239;-70
2022/04/12 01:52:36;;;;;;;;;5.50;4.50;;;;;16.04;52.41;100151.75;5178421;27;45128;-71
2022/04/12 01:55:03;;;;;;;;;3.50;3.50;;;;;15.76;52.42;100127.66;5176188;27;45423;-71
2022/04/12 01:57:29;;;;;;;;;4.00;4.00;;;;;15.93;52.67;100151.81;5171827;27;45414;-69
2022/04/12 01:59:55;;;;;;;;;2.50;2.50;;;;;15.85;52.85;100145.56;5178139;27;45416;-70
2022/04/12 02:02:21;;;;;;;;;5.00;5.00;;;;;15.88;52.59;100145.53;5176817;27;45181;-70
2022/04/12 02:04:46;;;;;;;;;4.00;2.75;;;;;15.85;52.98;100137.47;5172419;27;45458;-71
2022/04/12 02:07:12;;;;;;;;;3.50;3.50;;;;;15.90;52.42;100142.84;5173449;27;45228;-69
2022/04/12 02:09:37;;;;;;;;;3.00;3.00;;;;;15.94;52.05;100136.56;5169932;27;45314;-70
2022/04/12 02:12:03;;;;;;;;;7.50;4.50;;;;;15.86;52.00;100116.84;5177300;27;44960;-69
2022/04/12 02:14:28;;;;;;;;;4.75;4.75;;;;;15.98;52.17;100132.91;5174493;27;44980;-70
2022/04/12 02:16:53;;;;;;;;;7.25;4.00;;;;;15.88;52.09;100109.63;5170568;27;45010;-70
2022/04/12 02:19:19;;;;;;;;;10.00;5.50;;;;;15.99;51.97;100126.63;5171777;27;45728;-69
2022/04/12 02:21:44;;;;;;;;;3.00;3.00;;;;;15.94;51.49;100121.28;5166412;27;45429;-70
2022/04/12 02:24:09;;;;;;;;;4.00;3.50;;;;;15.96;51.47;100111.38;5168233;27;45901;-70
2022/04/12 02:26:35;;;;;;;;;4.75;3.25;;;;;16.05;51.44;100123.00;5177897;27;45073;-70
2022/04/12 02:29:00;;;;;;;;;5.25;5.00;;;;;16.02;51.49;100105.97;5177856;27;45144;-72
2022/04/12 02:31:25;;;;;;;;;4.50;3.00;;;;;16.03;51.56;100120.31;5165770;27;45343;-71
2022/04/12 02:33:51;;;;;;;;;5.50;3.75;;;;;15.47;51.23;100028.13;5175324;27;45759;-70
2022/04/12 02:36:16;;;;;;;;;4.25;4.25;;;;;16.03;51.25;100113.13;5175739;27;45075;-71
2022/04/12 02:38:42;;;;;;;;;8.00;3.50;;;;;16.00;51.41;100118.56;5174463;27;45400;-70
2022/04/12 02:41:07;;;;;;;;;2.50;2.50;;;;;15.57;51.67;100056.78;5177028;27;45074;-70
2022/04/12 02:43:32;;;;;;;;;5.50;4.00;;;;;15.98;51.37;100123.03;5178073;27;44924;-70
2022/04/12 02:45:58;;;;;;;;;4.00;4.00;;;;;15.88;51.33;100115.03;5154522;27;45063;-70
2022/04/12 02:48:24;;;;;;;;;5.25;5.25;;;;;15.93;51.61;100132.06;5161430;27;45452;-71
2022/04/12 02:50:49;;;;;;;;;6.50;5.75;;;;;15.78;51.31;100095.31;5160800;27;45484;-71
2022/04/12 02:53:15;;;;;;;;;4.25;4.25;;;;;15.50;51.70;100064.91;5175661;27;45265;-71
2022/04/12 02:55:40;;;;;;;;;3.00;3.00;;;;;15.76;51.29;100126.75;5163861;27;45384;-70
2022/04/12 02:58:07;;;;;;;;;3.75;2.75;;;;;15.78;51.25;100106.09;5163775;27;45471;-69
2022/04/12 03:00:32;;;;;;;;;4.75;4.75;;;;;15.90;51.19;100115.91;5168367;27;45272;-71
2022/04/12 03:02:57;;;;;;;;;3.00;3.00;;;;;15.78;51.38;100103.41;5174457;27;45203;-71
2022/04/12 03:05:23;;;;;;;;;4.00;3.25;;;;;15.90;51.01;100127.56;5168115;27;45429;-69
2022/04/12 03:07:48;;;;;;;;;2.50;2.50;;;;;15.78;50.79;100084.56;5167188;27;45405;-71
2022/04/12 03:10:13;;;;;;;;;4.00;3.75;;;;;15.94;51.00;100110.50;5166140;27;45330;-70
2022/04/12 03:12:39;;;;;;;;;4.00;4.00;;;;;15.91;50.57;100102.44;5159164;27;45590;-69
2022/04/12 03:15:07;;;;;;;;;7.25;4.50;;;;;15.87;50.47;100092.56;5159522;27;45461;-70
2022/04/12 03:17:32;;;;;;;;;13.75;9.75;;;;;15.88;50.29;100094.34;5158962;27;46064;-71
2022/04/12 03:19:57;;;;;;;;;7.25;3.75;;;;;15.86;50.28;100087.22;5158857;27;45605;-69
2022/04/12 03:22:23;;;;;;;;;8.75;8.75;;;;;15.87;50.14;100086.28;5159947;27;45441;-71
2022/04/12 03:24:48;;;;;;;;;3.25;3.00;;;;;15.77;50.27;100078.28;5158936;27;45630;-70
2022/04/12 03:27:13;;;;;;;;;3.50;3.50;;;;;15.64;50.03;100060.34;5158758;27;46272;-71
2022/04/12 03:29:39;;;;;;;;;3.50;3.25;;;;;15.65;50.06;100060.31;5161497;27;45464;-71
2022/04/12 03:32:04;;;;;;;;;6.50;4.50;;;;;15.69;50.20;100071.09;5159933;27;45689;-69
2022/04/12 03:34:30;;;;;;;;;2.00;2.00;;;;;15.76;49.86;100089.94;5159095;27;45658;-69
2022/04/12 03:36:55;;;;;;;;;5.75;4.50;;;;;15.67;50.40;100073.78;5158499;27;46119;-69
2022/04/12 03:39:25;;;;;;;;;4.50;4.25;;;;;15.78;50.10;100085.44;5162678;27;45446;-68
2022/04/12 03:41:51;;;;;;;;;4.75;3.00;;;;;15.64;49.81;100072.03;5157682;27;45503;-71
2022/04/12 03:44:17;;;;;;;;;2.00;2.00;;;;;15.46;50.23;100066.75;5157124;27;45470;-69
2022/04/12 03:46:42;;;;;;;;;4.00;4.00;;;;;15.61;50.01;100109.72;5159498;27;45297;-69
2022/04/12 03:49:08;;;;;;;;;6.00;4.00;;;;;15.44;50.09;100092.75;5164332;27;46656;-70
2022/04/12 03:51:35;;;;;;;;;7.25;4.25;;;;;15.55;50.14;100106.19;5171660;27;45375;-72
2022/04/12 03:54:01;;;;;;;;;2.25;2.25;;;;;15.60;49.82;100118.69;5173249;27;44999;-72
2022/04/12 03:56:27;;;;;;;;;4.75;4.75;;;;;15.44;50.04;100122.34;5171263;27;46374;-69
2022/04/12 03:58:53;;;;;;;;;5.00;5.00;;;;;15.44;50.04;100108.91;5161143;27;45631;-69
2022/04/12 04:01:19;;;;;;;;;4.00;4.00;;;;;14.97;50.49;100037.31;5162506;27;45347;-70
2022/04/12 04:03:44;;;;;;;;;2.75;2.75;;;;;15.41;50.12;100106.22;5161375;27;45597;-69
2022/04/12 04:06:11;;;;;;;;;7.50;3.50;;;;;15.34;50.00;100086.50;5169961;27;45226;-69
2022/04/12 04:08:36;;;;;;;;;4.00;4.00;;;;;15.46;49.90;100099.03;5159399;27;45414;-69
2022/04/12 04:11:02;;;;;;;;;3.25;2.00;;;;;15.44;50.03;100098.13;5159106;27;45331;-69
2022/04/12 04:13:30;;;;;;;;;7.50;3.50;;;;;15.39;49.64;100094.56;5165308;27;45289;-69
2022/04/12 04:15:56;;;;;;;;;4.00;4.00;;;;;15.33;49.55;100075.72;5161608;27;45368;-70
2022/04/12 04:18:21;;;;;;;;;6.50;6.50;;;;;15.46;49.23;100113.38;5172857;27;45283;-68
2022/04/12 04:20:47;;;;;;;;;4.00;4.00;;;;;15.16;49.45;100070.41;5172738;27;45091;-69
2022/04/12 04:23:12;;;;;;;;;4.00;4.00;;;;;15.42;49.47;100108.00;5164318;27;44962;-68
2022/04/12 04:25:38;;;;;;;;;4.00;4.00;;;;;15.46;49.14;100108.00;5153525;27;46541;-70
2022/04/12 04:28:05;;;;;;;;;4.00;4.00;;;;;15.43;48.81;100109.81;5171553;27;45134;-69
2022/04/12 04:30:33;;;;;;;;;6.00;5.25;;;;;15.37;49.18;100117.91;5172195;27;45374;-70
2022/04/12 04:32:59;;;;;;;;;6.75;6.75;;;;;15.34;49.10;100118.78;5154962;27;45078;-69
2022/04/12 04:35:25;;;;;;;;;4.00;4.00;;;;;15.34;48.95;100109.84;5154570;27;45166;-68
2022/04/12 04:37:50;;;;;;;;;3.00;3.00;;;;;15.33;49.17;100113.41;5154777;27;45352;-68
2022/04/12 04:40:18;;;;;;;;;4.00;4.00;;;;;15.34;48.89;100112.53;5167577;27;45248;-69
2022/04/12 04:42:47;;;;;;;;;4.75;3.50;;;;;15.23;48.95;100112.59;5165457;27;45692;-69
2022/04/12 04:45:13;;;;;;;;;3.25;3.25;;;;;15.18;48.96;100114.34;5156803;27;46181;-70
2022/04/12 04:47:53;;;;;;;;;4.50;4.00;;;;;15.18;49.01;100122.44;5164215;27;45549;-68
2022/04/12 04:50:21;;;;;;;;;7.00;4.00;;;;;14.97;49.09;100088.44;5163686;27;45379;-71
2022/04/12 04:52:47;;;;;;;;;4.25;4.00;;;;;15.13;48.78;100127.84;5157451;27;45546;-70
2022/04/12 04:55:13;;;;;;;;;3.75;3.75;;;;;15.17;48.94;100129.63;5145053;27;45289;-68
2022/04/12 04:57:42;;;;;;;;;6.25;4.00;;;;;15.07;49.16;100130.53;5140051;27;45494;-68
2022/04/12 05:00:15;;;;;;;;;4.25;4.25;;;;;15.05;49.09;100135.03;5142271;27;45271;-69
2022/04/12 05:02:50;;;;;;;;;4.00;4.00;;;;;14.95;49.52;100125.16;5159614;27;45188;-70
2022/04/12 05:05:15;;;;;;;;;6.25;4.50;;;;;15.03;49.36;100128.75;5173952;27;45469;-69
2022/04/12 05:07:44;;;;;;;;;5.25;5.25;;;;;14.88;48.87;100113.53;5174013;27;45054;-70
2022/04/12 05:10:13;;;;;;;;;5.50;5.50;;;;;15.03;49.29;100139.50;5160499;27;45113;-68
2022/04/12 05:12:39;;;;;;;;;3.75;3.50;;;;;15.03;49.18;100142.19;5175609;27;45093;-70
2022/04/12 05:15:04;;;;;;;;;5.25;3.50;;;;;15.04;49.07;100146.69;5175247;27;45108;-68
2022/04/12 05:17:30;;;;;;;;;6.00;6.00;;;;;14.99;49.25;100148.50;5170759;27;45335;-70
2022/04/12 05:19:58;;;;;;;;;10.25;6.75;;;;;14.80;49.21;100121.63;5166846;27;45263;-68
2022/04/12 05:22:25;;;;;;;;;8.25;7.00;;;;;14.99;49.54;100160.13;5136462;27;45510;-69
2022/04/12 05:24:50;;;;;;;;;4.50;4.00;;;;;14.99;49.46;100165.53;5136221;27;45578;-70
2022/04/12 05:27:16;;;;;;;;;9.25;6.75;;;;;14.89;49.29;100148.50;5151014;27;45463;-71
2022/04/12 05:29:42;;;;;;;;;6.25;6.00;;;;;14.82;49.45;100157.47;5159847;27;45533;-69
2022/04/12 05:32:09;;;;;;;;;4.25;4.00;;;;;14.85;49.51;100161.94;5170592;27;45094;-70
2022/04/12 05:34:36;;;;;;;;;5.50;5.50;;;;;14.83;51.15;100169.13;5156611;27;45262;-69
2022/04/12 05:37:02;;;;;;;;;5.75;5.75;;;;;14.73;50.14;100146.72;5155895;27;45490;-68
2022/04/12 05:39:28;;;;;;;;;5.00;4.00;;;;;14.76;49.55;100153.88;5156513;27;45725;-70
2022/04/12 05:41:53;;;;;;;;;7.00;5.50;;;;;14.41;49.94;100079.50;5167156;27;45403;-70
2022/04/12 05:44:18;;;;;;;;;6.50;4.75;;;;;14.73;49.74;100133.25;5170037;27;45152;-72
2022/04/12 05:46:44;;;;;;;;;15.00;13.50;;;;;14.85;49.70;100167.31;5152803;27;47029;-70
2022/04/12 05:49:09;;;;;;;;;14.75;14.75;;;;;14.82;49.71;100173.59;5144130;27;45399;-70
2022/04/12 05:51:34;;;;;;;;;7.00;6.50;;;;;14.83;49.58;100174.50;5167550;27;45361;-70
2022/04/12 05:54:00;;;;;;;;;5.75;5.75;;;;;14.80;50.32;100175.41;5169957;27;46654;-71
2022/04/12 05:56:25;;;;;;;;;4.50;4.50;;;;;14.80;49.86;100179.88;5168636;27;45193;-70
2022/04/12 05:58:50;;;;;;;;;5.25;5.00;;;;;14.79;49.76;100181.66;5161843;27;45290;-71
2022/04/12 06:01:16;;;;;;;;;5.00;5.00;;;;;14.71;49.67;100178.97;5158812;27;45173;-71
2022/04/12 06:03:41;;;;;;;;;5.25;5.25;;;;;14.68;50.02;100188.84;5159870;27;45664;-70
2022/04/12 06:06:07;;;;;;;;;7.25;5.00;;;;;14.59;49.90;100165.53;5164245;27;44769;-71
2022/04/12 06:08:33;;;;;;;;;8.50;6.00;;;;;14.74;49.74;100178.97;5159582;27;45336;-72
2022/04/12 06:10:58;;;;;;;;;12.25;12.25;;;;;14.84;50.06;100193.31;5168792;27;45433;-72
2022/04/12 06:13:23;;;;;;;;;8.00;6.00;;;;;14.65;49.62;100165.56;5160054;27;45445;-70
2022/04/12 06:15:49;;;;;;;;;6.75;6.75;;;;;14.80;49.62;100183.47;5161753;27;45280;-72
2022/04/12 06:18:14;;;;;;;;;4.00;4.00;;;;;14.88;49.62;100192.44;5159386;27;45472;-71
2022/04/12 06:20:39;;;;;;;;;10.25;7.75;;;;;14.90;49.82;100192.44;5170480;27;45462;-71
2022/04/12 06:23:05;;;;;;;;;5.25;5.00;;;;;14.87;49.51;100179.88;5168060;27;45850;-71
2022/04/12 06:25:30;;;;;;;;;5.25;4.75;;;;;14.69;49.40;100178.09;5172113;27;44956;-70
2022/04/12 06:27:56;;;;;;;;;5.00;5.00;;;;;14.71;49.54;100197.78;5166173;27;45278;-69
2022/04/12 06:30:23;;;;;;;;;6.00;5.25;;;;;14.78;49.66;100198.69;5159221;27;45517;-69
2022/04/12 06:32:50;;;;;;;;;6.25;5.25;;;;;14.90;49.35;100206.78;5157766;27;45403;-72
2022/04/12 06:35:15;;;;;;;;;5.25;5.00;;;;;14.84;49.06;100185.25;5160277;27;45503;-71
2022/04/12 06:37:42;;;;;;;;;4.50;4.50;;;;;14.97;49.27;100206.78;5166223;27;45601;-70
2022/04/12 06:40:10;;;;;;;;;8.00;6.50;;;;;15.01;49.06;100217.53;5177401;27;45150;-72
2022/04/12 06:42:36;;;;;;;;;8.25;7.50;;;;;14.98;48.90;100211.25;5162920;27;46394;-71
2022/04/12 06:45:03;;;;;;;;;6.25;5.25;;;;;15.13;48.40;100232.78;5158544;27;45363;-70
2022/04/12 06:47:29;;;;;;;;;7.00;6.25;;;;;15.07;48.25;100228.28;5158510;27;45437;-69
2022/04/12 06:49:54;;;;;;;;;5.75;5.00;;;;;15.06;48.52;100237.28;5158890;27;45612;-68
2022/04/12 06:52:21;;;;;;;;;8.50;6.00;;;;;15.03;48.43;100239.03;5158693;27;46047;-70
2022/04/12 06:54:47;;;;;;;;;4.75;4.75;;;;;15.05;48.75;100234.59;5158294;27;45286;-70
2022/04/12 06:57:13;;;;;;;;;7.00;5.75;;;;;15.16;48.24;100245.31;5153743;27;45365;-69
2022/04/12 06:59:39;;;;;;;;;6.25;6.25;;;;;15.14;48.35;100244.44;5138117;27;45586;-68
2022/04/12 07:02:05;;;;;;;;;7.50;7.00;;;;;15.24;48.35;100265.94;5137492;27;45528;-70
2022/04/12 07:04:31;;;;;;;;;7.50;7.50;;;;;15.28;48.04;100270.44;5165712;27;45177;-69
2022/04/12 07:06:57;;;;;;;;;6.25;6.00;;;;;15.32;48.20;100274.03;5171385;27;45319;-70
2022/04/12 07:09:28;;;;;;;;;7.00;7.00;;;;;15.36;47.59;100266.84;5158537;27;45572;-70
2022/04/12 07:11:55;;;;;;;;;6.50;5.25;;;;;15.38;47.95;100270.44;5157285;27;46126;-69
2022/04/12 07:14:21;;;;;;;;;7.75;6.50;;;;;15.31;47.71;100250.72;5157087;27;45380;-69
2022/04/12 07:16:46;;;;;;;;;9.75;9.75;;;;;15.51;47.12;100282.06;5158271;27;45491;-68
2022/04/12 07:19:12;;;;;;;;;7.00;6.75;;;;;15.47;46.94;100274.00;5158257;27;45635;-70
2022/04/12 07:21:37;;;;;;;;;10.75;9.50;;;;;15.23;46.01;100229.19;5158388;27;46013;-70
2022/04/12 07:24:03;;;;;;;;;8.75;8.75;;;;;15.65;46.19;100281.16;5158302;27;45330;-69
2022/04/12 07:26:30;;;;;;;;;6.25;6.25;;;;;15.25;46.36;100207.66;5158326;27;45411;-70
2022/04/12 07:28:55;;;;;;;;;6.00;5.75;;;;;15.68;45.82;100268.59;5158140;27;45335;-69
2022/04/12 07:31:21;;;;;;;;;8.50;6.00;;;;;15.77;45.63;100282.97;5157772;27;46203;-69
2022/04/12 07:33:46;;;;;;;;;10.75;9.50;;;;;15.79;45.70;100288.38;5157758;27;46106;-70
2022/04/12 07:36:12;;;;;;;;;5.50;5.50;;;;;15.78;45.52;100286.56;5157920;27;45626;-69
2022/04/12 07:38:37;;;;;;;;;5.00;4.00;;;;;15.84;45.43;100289.25;5157981;27;45355;-69
2022/04/12 07:41:04;;;;;;;;;4.50;4.50;;;;;15.87;45.71;100285.63;5157835;27;51272;-69
2022/04/12 07:43:30;;;;;;;;;6.25;5.00;;;;;15.94;45.43;100279.34;5157603;27;45453;-69
2022/04/12 07:45:55;;;;;;;;;5.00;4.75;;;;;15.85;44.38;100261.38;5157659;27;45481;-68
2022/04/12 07:48:21;;;;;;;;;6.00;4.50;;;;;15.92;45.10;100260.47;5158117;27;45283;-69
2022/04/12 07:50:46;;;;;;;;;7.50;6.50;;;;;16.06;44.96;100265.81;5157486;27;46071;-70
2022/04/12 07:53:11;;;;;;;;;4.75;4.75;;;;;16.20;44.47;100290.00;5157647;27;45301;-70
2022/04/12 07:55:37;;;;;;;;;5.00;3.50;;;;;16.24;43.92;100281.00;5158077;27;45528;-70
2022/04/12 07:58:03;;;;;;;;;8.50;5.00;;;;;16.31;44.16;100281.88;5157989;27;45290;-69
2022/04/12 08:00:28;;;;;;;;;4.00;4.00;;;;;16.37;43.76;100273.78;5158063;27;46763;-69
2022/04/12 08:02:54;;;;;;;;;4.00;4.00;;;;;16.40;43.77;100271.94;5157903;27;45331;-70
2022/04/12 08:05:19;;;;;;;;;5.50;5.00;;;;;16.47;43.61;100262.03;5157537;27;45490;-70
2022/04/12 08:07:47;;;;;;;;;8.50;7.00;;;;;16.53;43.49;100272.78;5158102;27;45429;-71
2022/04/12 08:10:16;;;;;;;;;7.75;5.00;;;;;16.62;43.25;100279.03;5157590;27;46310;-70
2022/04/12 08:12:43;;;;;;;;;4.25;4.25;;;;;16.70;43.45;100261.88;5157749;27;45458;-70
2022/04/12 08:15:10;;;;;;;;;8.25;6.50;;;;;16.82;43.46;100262.72;5157606;27;45435;-70
2022/04/12 08:17:36;;;;;;;;;8.00;5.75;;;;;16.90;42.94;100272.56;5157597;27;45373;-71
2022/04/12 08:20:01;;;;;;;;;5.00;5.00;;;;;16.72;42.62;100219.59;5157646;27;45622;-70
2022/04/12 08:22:26;;;;;;;;;3.75;3.75;;;;;17.01;42.35;100263.47;5157295;27;46233;-70
2022/04/12 08:24:52;;;;;;;;;11.25;8.25;;;;;16.99;42.52;100273.41;5158314;27;45389;-70
2022/04/12 08:27:18;;;;;;;;;3.75;2.25;;;;;16.67;41.93;100178.28;5157774;27;45486;-70
2022/04/12 08:29:45;;;;;;;;;19.75;16.25;;;;;17.22;42.18;100268.69;5137851;27;46122;-70
2022/04/12 08:32:10;;;;;;;;;5.00;4.75;;;;;17.28;41.77;100274.06;5157383;27;45284;-70
2022/04/12 08:34:36;;;;;;;;;7.00;5.50;;;;;17.35;41.73;100264.09;5157125;27;45336;-70
2022/04/12 08:37:02;;;;;;;;;6.50;4.25;;;;;17.45;41.51;100262.22;5157403;27;45322;-70
2022/04/12 08:39:27;;;;;;;;;9.75;6.50;;;;;17.50;41.91;100244.16;5138027;27;46883;-69
2022/04/12 08:41:57;;;;;;;;;6.50;4.25;;;;;17.43;41.25;100216.31;5156806;27;45373;-71
2022/04/12 08:44:24;;;;;;;;;9.00;4.75;;;;;17.70;41.33;100246.63;5156925;27;45504;-70
2022/04/12 08:46:50;;;;;;;;;6.00;3.75;;;;;17.77;40.93;100256.47;5157072;27;45282;-71
2022/04/12 08:49:16;;;;;;;;;3.67;3.67;;;;;17.80;40.48;100256.44;5157405;27;46308;-70
2022/04/12 08:51:41;;;;;;;;;4.33;3.00;;;;;17.94;40.88;100266.25;5157243;27;45458;-71
2022/04/12 08:54:08;;;;;;;;;8.25;4.25;;;;;18.02;40.54;100259.81;5156700;27;45586;-69
2022/04/12 08:56:34;;;;;;;;;3.33;3.33;;;;;17.74;40.63;100191.66;5156758;27;45425;-69
2022/04/12 08:58:59;;;;;;;;;3.67;3.00;;;;;18.28;40.04;100257.69;5155253;27;47241;-69
2022/04/12 09:01:24;;;;;;;;;3.67;3.00;;;;;18.35;39.97;100263.00;5156505;27;45337;-70
2022/04/12 09:03:50;;;;;;;;;4.00;3.00;;;;;17.91;39.32;100177.09;5156904;27;45514;-69
2022/04/12 09:06:15;;;;;;;;;4.33;4.33;;;;;18.48;39.33;100254.72;5157102;27;45459;-71
2022/04/12 09:08:41;;;;;;;;;5.00;4.00;;;;;18.38;39.09;100235.03;5156707;27;46194;-70
2022/04/12 09:11:08;;;;;;;;;4.00;3.33;;;;;18.53;38.97;100234.81;5156641;27;45435;-70
2022/04/12 09:13:35;;;;;;;;;5.00;4.00;;;;;18.66;39.10;100251.75;5154988;27;45426;-70
2022/04/12 09:16:01;;;;;;;;;2.00;2.00;;;;;18.20;38.62;100161.34;5156603;27;45478;-69
2022/04/12 09:18:39;;;;;;;;;4.33;3.00;;;;;18.76;38.61;100242.59;5156094;27;45428;-70
2022/04/12 09:21:16;;;;;;;;;2.33;2.00;;;;;18.87;38.38;100241.53;5156452;27;45553;-69
2022/04/12 09:23:53;;;;;;;;;6.00;4.00;;;;;18.96;38.17;100249.53;5156277;27;45531;-70
2022/04/12 09:26:29;;;;;;;;;5.67;3.33;;;;;19.00;38.03;100253.97;5156403;27;45340;-70
2022/04/12 09:28:58;;;;;;;;;6.00;3.00;;;;;18.82;38.11;100200.09;5155568;27;46610;-69
2022/04/12 09:31:24;;;;;;;;;3.00;3.00;;;;;19.18;37.84;100241.06;5156316;27;45579;-70
2022/04/12 09:33:52;;;;;;;;;4.33;4.33;;;;;19.31;37.55;100243.50;5156233;27;45403;-71
2022/04/12 09:36:17;;;;;;;;;8.33;5.00;;;;;19.41;37.58;100233.41;5156437;27;45324;-70
2022/04/12 09:38:44;;;;;;;;;5.00;3.67;;;;;19.50;37.18;100244.09;5156061;27;46374;-70
2022/04/12 09:41:22;;;;;;;;;6.33;4.33;;;;;19.56;37.51;100234.94;5158128;27;45438;-70
2022/04/12 09:44:12;;;;;;;;;4.67;4.67;;;;;19.65;37.20;100234.78;5159733;27;45380;-69
2022/04/12 09:46:39;;;;;;;;;12.75;9.50;;;;;19.75;37.44;100235.53;5159903;27;45501;-70
2022/04/12 09:49:06;;;;;;;;;5.00;5.00;;;;;19.82;36.85;100225.44;5159415;27;46359;-70
2022/04/12 09:51:36;;;;;;;;;3.33;3.33;;;;;19.91;36.86;100227.94;5159560;27;45360;-70
2022/04/12 09:54:01;;;;;;;;;5.00;5.00;;;;;19.83;36.63;100197.38;5159605;27;45340;-71
2022/04/12 09:56:29;;;;;;;;;4.33;4.33;;;;;20.11;36.63;100222.09;5159960;27;45366;-70
2022/04/12 09:59:00;;;;;;;;;3.33;3.00;;;;;20.13;36.31;100219.34;5159295;27;46182;-70
2022/04/12 10:01:27;;;;;;;;;3.33;2.00;;;;;20.19;36.32;100222.84;5159328;27;45353;-71
2022/04/12 10:03:55;;;;;;;;;4.33;2.67;;;;;20.27;36.33;100219.97;5159434;27;45482;-70
2022/04/12 10:06:23;;;;;;;;;5.33;4.33;;;;;20.36;36.64;100233.34;5159203;27;45519;-70
2022/04/12 10:08:54;;;;;;;;;6.00;4.00;;;;;20.37;36.01;100232.38;5158927;27;47310;-70
2022/04/12 10:11:21;;;;;;;;;5.00;5.00;;;;;20.27;36.20;100211.81;5159026;27;45415;-70
2022/04/12 10:13:48;;;;;;;;;4.00;4.00;;;;;20.34;36.16;100216.22;5160291;27;45298;-69
2022/04/12 10:16:16;;;;;;;;;4.33;4.33;;;;;20.44;36.06;100217.78;5160151;27;45272;-70
2022/04/12 10:18:42;;;;;;;;;3.00;3.00;;;;;20.50;36.15;100216.72;5159701;27;46239;-71
2022/04/12 10:21:11;;;;;;;;;7.33;3.33;;;;;20.13;35.92;100138.00;5159325;27;45436;-70
2022/04/12 10:23:39;;;;;;;;;3.33;3.00;;;;;20.52;36.38;100204.00;5159274;27;45435;-70
2022/04/12 10:26:05;;;;;;;;;4.33;2.00;;;;;20.32;35.78;100162.91;5159810;27;45693;-71
2022/04/12 10:28:31;;;;;;;;;5.67;5.33;;;;;20.34;36.27;100144.75;5158600;27;46356;-71
2022/04/12 10:31:24;;;;;;;;;6.33;3.00;;;;;20.51;36.42;100179.63;5159216;27;45403;-70
2022/04/12 10:34:05;;;;;;;;;6.00;1.00;;;;;19.71;36.42;100033.19;5158678;27;45348;-70
2022/04/12 10:37:04;;;;;;;;;6.00;4.33;;;;;20.73;36.09;100188.19;5157333;27;45661;-71
2022/04/12 10:39:31;;;;;;;;;3.33;2.00;;;;;20.73;35.90;100172.78;5158732;27;47032;-71
2022/04/12 10:41:59;;;;;;;;;8.33;4.00;;;;;20.58;36.17;100144.16;5158886;27;45374;-70
2022/04/12 10:44:25;;;;;;;;;3.00;3.00;;;;;20.77;36.29;100188.09;5159009;27;45299;-71
2022/04/12 10:46:51;;;;;;;;;10.00;6.00;;;;;20.73;36.40;100190.91;5139880;27;45257;-71
2022/04/12 10:49:19;;;;;;;;;3.67;3.00;;;;;20.70;36.24;100200.00;5158521;27;46458;-71
2022/04/12 10:51:46;;;;;;;;;6.67;4.33;;;;;20.73;36.40;100199.94;5157760;27;45532;-71
2022/04/12 10:54:27;;;;;;;;;4.00;4.00;;;;;20.83;36.53;100208.75;5158465;27;45484;-71
2022/04/12 10:57:18;;;;;;;;;5.00;4.00;;;;;20.92;36.57;100205.81;5158354;27;45611;-71
2022/04/12 10:59:49;;;;;;;;;5.00;4.67;;;;;20.82;36.26;100163.50;5158099;27;45532;-71
2022/04/12 11:02:14;;;;;;;;;4.33;4.33;;;;;21.12;36.09;100199.00;5157770;27;45361;-70
2022/04/12 11:04:40;;;;;;;;;10.00;5.50;;;;;21.19;36.06;100213.31;5139369;27;45566;-70
2022/04/12 11:07:09;;;;;;;;;5.00;4.00;;;;;21.22;35.94;100221.34;5158898;27;45549;-71
2022/04/12 11:09:34;;;;;;;;;8.33;5.00;;;;;21.21;36.03;100222.31;5158299;27;46463;-69
2022/04/12 11:12:02;;;;;;;;;5.00;4.67;;;;;21.26;36.11;100232.09;5158055;27;45441;-71
2022/04/12 11:14:33;;;;;;;;;6.33;3.67;;;;;21.29;35.94;100240.19;5158491;27;45302;-71
2022/04/12 11:17:17;;;;;;;;;3.67;3.67;;;;;21.30;36.04;100250.13;5158721;27;45712;-71
2022/04/12 11:19:48;;;;;;;;;7.00;5.00;;;;;21.25;35.97;100240.28;5158164;27;46089;-71
2022/04/12 11:22:15;;;;;;;;;0.33;0.00;;;;;21.27;36.11;100258.34;5158649;27;45383;-71
2022/04/12 11:24:41;;;;;;;;;4.00;4.00;;;;;21.28;36.07;100242.94;5158502;27;45503;-71